createdAt,value
2018-07-17T00:00:27.860Z,100495.00
2018-07-17T00:02:58.459Z,100492.00
2018-07-17T00:05:28.477Z,100489.00
2018-07-17T00:07:58.878Z,100495.00
2018-07-17T00:10:28.864Z,100494.00
2018-07-17T00:12:58.989Z,100496.00
2018-07-17T00:15:29.158Z,100496.00
2018-07-17T00:17:59.608Z,100496.00
2018-07-17T00:20:30.404Z,100494.00
2018-07-17T00:23:00.823Z,100500.00
2018-07-17T00:25:31.029Z,100500.00
2018-07-17T00:28:01.261Z,100507.00
2018-07-17T00:30:31.514Z,100501.00
2018-07-17T00:33:01.781Z,100501.00
2018-07-17T00:35:31.754Z,100493.00
2018-07-17T00:38:01.939Z,100495.00
2018-07-17T00:40:32.218Z,100491.00
2018-07-17T00:43:02.365Z,100491.00
2018-07-17T00:45:32.564Z,100490.00
2018-07-17T00:48:02.952Z,100482.00
2018-07-17T00:50:32.962Z,100483.00
2018-07-17T00:53:03.142Z,100482.00
2018-07-17T00:55:33.501Z,100481.00
2018-07-17T00:58:03.674Z,100478.00
2018-07-17T01:00:39.122Z,100485.00
2018-07-17T01:03:14.682Z,100481.00
2018-07-17T01:05:49.789Z,100480.00
2018-07-17T01:08:24.814Z,100478.00
2018-07-17T01:11:00.005Z,100477.00
2018-07-17T01:13:48.731Z,100476.00
2018-07-17T01:16:19.004Z,100468.00
2018-07-17T01:18:49.103Z,100469.00
2018-07-17T01:21:19.352Z,100470.00
2018-07-17T01:23:49.631Z,100466.00
2018-07-17T01:26:19.771Z,100464.00
2018-07-17T01:28:49.819Z,100464.00
2018-07-17T01:31:20.152Z,100465.00
2018-07-17T01:33:50.680Z,100460.00
2018-07-17T01:36:21.041Z,100459.00
2018-07-17T01:38:51.364Z,100460.00
2018-07-17T01:41:21.587Z,100462.00
2018-07-17T01:43:51.983Z,100465.00
2018-07-17T01:46:22.532Z,100466.00
2018-07-17T01:48:52.714Z,100467.00
2018-07-17T01:51:23.012Z,100463.00
2018-07-17T01:53:53.379Z,100458.00
2018-07-17T01:56:23.573Z,100464.00
2018-07-17T01:58:53.679Z,100462.00
2018-07-17T02:01:24.009Z,100457.00
2018-07-17T02:03:54.174Z,100458.00
2018-07-17T02:06:24.538Z,100459.00
2018-07-17T02:08:54.859Z,100453.00
2018-07-17T02:11:25.027Z,100459.00
2018-07-17T02:13:55.112Z,100461.00
2018-07-17T02:16:25.590Z,100468.00
2018-07-17T02:18:55.604Z,100463.00
2018-07-17T02:21:25.552Z,100467.00
2018-07-17T02:23:56.498Z,100463.00
2018-07-17T02:26:27.642Z,100464.00
2018-07-17T02:28:58.393Z,100462.00
2018-07-17T02:31:29.616Z,100462.00
2018-07-17T02:34:00.741Z,100460.00
2018-07-17T02:36:31.758Z,100462.00
2018-07-17T02:39:03.178Z,100463.00
2018-07-17T02:41:33.936Z,100454.00
2018-07-17T02:44:04.852Z,100464.00
2018-07-17T02:46:35.877Z,100463.00
2018-07-17T02:49:06.812Z,100465.00
2018-07-17T02:51:37.998Z,100464.00
2018-07-17T02:54:08.934Z,100464.00
2018-07-17T03:04:03.998Z,100462.00
2018-07-17T03:06:41.239Z,100470.00
2018-07-17T03:09:11.356Z,100471.00
2018-07-17T03:11:41.686Z,100466.00
2018-07-17T03:14:11.756Z,100465.00
2018-07-17T03:16:41.981Z,100461.00
2018-07-17T03:19:12.537Z,100463.00
2018-07-17T03:21:43.141Z,100463.00
2018-07-17T03:24:13.460Z,100462.00
2018-07-17T03:26:43.577Z,100464.00
2018-07-17T03:29:14.055Z,100469.00
2018-07-17T03:31:44.314Z,100472.00
2018-07-17T03:34:14.374Z,100471.00
2018-07-17T03:36:44.518Z,100474.00
2018-07-17T03:39:14.602Z,100474.00
2018-07-17T03:41:44.757Z,100474.00
2018-07-17T03:44:14.857Z,100470.00
2018-07-17T03:46:45.256Z,100480.00
2018-07-17T03:49:15.406Z,100480.00
2018-07-17T03:51:45.668Z,100478.00
2018-07-17T03:54:15.686Z,100474.00
2018-07-17T03:56:45.954Z,100477.00
2018-07-17T03:59:16.205Z,100475.00
2018-07-17T04:01:46.283Z,100475.00
2018-07-17T04:04:16.591Z,100470.00
2018-07-17T04:06:46.613Z,100473.00
2018-07-17T04:09:16.803Z,100474.00
2018-07-17T04:11:47.101Z,100472.00
2018-07-17T04:14:17.154Z,100475.00
2018-07-17T04:16:55.373Z,100471.00
2018-07-17T04:19:26.569Z,100478.00
2018-07-17T04:21:56.755Z,100483.00
2018-07-17T04:24:26.987Z,100478.00
2018-07-17T04:26:57.067Z,100483.00
2018-07-17T04:29:27.423Z,100482.00
2018-07-17T04:31:57.550Z,100481.00
2018-07-17T04:34:27.701Z,100475.00
2018-07-17T04:36:57.911Z,100478.00
2018-07-17T04:39:27.984Z,100481.00
2018-07-17T04:41:58.232Z,100479.00
2018-07-17T04:54:03.342Z,100485.00
2018-07-17T04:56:34.183Z,100502.00
2018-07-17T04:59:05.352Z,100507.00
2018-07-17T05:01:36.155Z,100517.00
2018-07-17T05:04:06.626Z,100520.00
2018-07-17T05:06:36.749Z,100528.00
2018-07-17T05:09:09.221Z,100532.00
2018-07-17T05:11:39.357Z,100538.00
2018-07-17T05:14:09.826Z,100534.00
2018-07-17T05:16:40.392Z,100528.00
2018-07-17T05:19:10.656Z,100522.00
2018-07-17T05:21:40.911Z,100531.00
2018-07-17T05:24:11.050Z,100538.00
2018-07-17T05:26:41.423Z,100535.00
2018-07-17T05:29:11.706Z,100529.00
2018-07-17T05:31:42.005Z,100528.00
2018-07-17T05:34:12.300Z,100526.00
2018-07-17T05:36:42.651Z,100525.00
2018-07-17T05:39:13.111Z,100521.00
2018-07-17T05:41:43.469Z,100518.00
2018-07-17T05:44:13.539Z,100520.00
2018-07-17T05:46:43.786Z,100523.00
2018-07-17T05:49:13.996Z,100526.00
2018-07-17T05:51:44.237Z,100530.00
2018-07-17T05:54:14.390Z,100534.00
2018-07-17T05:56:44.703Z,100525.00
2018-07-17T05:59:15.015Z,100527.00
2018-07-17T06:01:45.526Z,100540.00
2018-07-17T06:04:15.993Z,100537.00
2018-07-17T06:06:46.293Z,100535.00
2018-07-17T06:09:16.591Z,100547.00
2018-07-17T06:11:46.856Z,100550.00
2018-07-17T06:14:17.171Z,100547.00
2018-07-17T06:16:47.269Z,100548.00
2018-07-17T06:19:17.584Z,100543.00
2018-07-17T06:21:47.696Z,100543.00
2018-07-17T06:24:17.920Z,100543.00
2018-07-17T06:26:48.259Z,100547.00
2018-07-17T06:29:18.472Z,100546.00
2018-07-17T06:31:49.149Z,100559.00
2018-07-17T06:34:19.502Z,100557.00
2018-07-17T06:36:49.745Z,100556.00
2018-07-17T06:39:20.439Z,100555.00
2018-07-17T06:41:50.872Z,100560.00
2018-07-17T06:44:21.536Z,100559.00
2018-07-17T06:46:51.882Z,100555.00
2018-07-17T06:49:22.420Z,100560.00
2018-07-17T06:51:52.762Z,100565.00
2018-07-17T06:54:23.223Z,100572.00
2018-07-17T06:56:53.563Z,100569.00
2018-07-17T06:59:24.357Z,100571.00
2018-07-17T07:01:54.666Z,100565.00
2018-07-17T07:04:25.208Z,100570.00
2018-07-17T07:06:55.771Z,100573.00
2018-07-17T07:09:26.077Z,100574.00
2018-07-17T07:11:56.297Z,100574.00
2018-07-17T07:14:26.533Z,100574.00
2018-07-17T07:16:56.735Z,100580.00
2018-07-17T07:19:27.057Z,100579.00
2018-07-17T07:22:03.826Z,100581.00
2018-07-17T07:24:34.971Z,100582.00
2018-07-17T07:27:06.207Z,100578.00
2018-07-17T07:29:36.483Z,100576.00
2018-07-17T07:34:04.387Z,100571.00
2018-07-17T07:36:34.894Z,100575.00
2018-07-17T07:39:07.756Z,100577.00
2018-07-17T07:41:38.120Z,100576.00
2018-07-17T07:44:08.356Z,100579.00
2018-07-17T07:46:38.641Z,100575.00
2018-07-17T07:49:08.706Z,100578.00
2018-07-17T07:51:39.057Z,100574.00
2018-07-17T07:54:09.200Z,100571.00
2018-07-17T07:56:39.512Z,100571.00
2018-07-17T07:59:09.743Z,100577.00
2018-07-17T08:01:40.236Z,100574.00
2018-07-17T08:04:10.532Z,100574.00
2018-07-17T08:06:41.089Z,100575.00
2018-07-17T08:09:11.285Z,100581.00
2018-07-17T08:11:41.673Z,100581.00
2018-07-17T08:14:11.917Z,100574.00
2018-07-17T08:16:42.381Z,100566.00
2018-07-17T08:19:12.576Z,100563.00
2018-07-17T08:21:43.050Z,100568.00
2018-07-17T08:24:13.683Z,100565.00
2018-07-17T08:26:44.039Z,100571.00
2018-07-17T08:29:14.346Z,100566.00
2018-07-17T08:31:45.110Z,100562.00
2018-07-17T08:34:15.383Z,100565.00
2018-07-17T08:36:45.709Z,100572.00
2018-07-17T08:39:15.842Z,100567.00
2018-07-17T08:41:46.085Z,100566.00
2018-07-17T08:44:16.222Z,100563.00
2018-07-17T08:46:47.078Z,100564.00
2018-07-17T08:49:17.342Z,100564.00
2018-07-17T08:51:47.379Z,100570.00
2018-07-17T08:54:17.274Z,100567.00
2018-07-17T08:56:47.841Z,100570.00
2018-07-17T08:59:18.167Z,100575.00
2018-07-17T09:01:49.317Z,100582.00
2018-07-17T09:04:20.356Z,100588.00
2018-07-17T09:06:51.281Z,100586.00
2018-07-17T09:09:22.099Z,100594.00
2018-07-17T09:14:05.688Z,100583.00
2018-07-17T09:16:35.966Z,100583.00
2018-07-17T09:19:06.148Z,100581.00
2018-07-17T09:21:36.497Z,100591.00
2018-07-17T09:24:07.669Z,100588.00
2018-07-17T09:26:37.799Z,100593.00
2018-07-17T09:29:07.947Z,100593.00
2018-07-17T09:31:38.009Z,100590.00
2018-07-17T09:34:08.272Z,100595.00
2018-07-17T09:36:38.328Z,100590.00
2018-07-17T09:39:09.779Z,100594.00
2018-07-17T09:41:40.071Z,100599.00
2018-07-17T09:44:10.295Z,100595.00
2018-07-17T09:46:40.237Z,100596.00
2018-07-17T09:49:10.432Z,100592.00
2018-07-17T09:51:40.678Z,100589.00
2018-07-17T09:54:10.946Z,100590.00
2018-07-17T09:56:42.037Z,100580.00
2018-07-17T09:59:13.140Z,100588.00
2018-07-17T10:01:48.941Z,100593.00
2018-07-17T10:04:19.607Z,100601.00
2018-07-17T10:06:49.757Z,100595.00
2018-07-17T10:09:20.156Z,100588.00
2018-07-17T10:11:50.441Z,100600.00
2018-07-17T10:14:20.662Z,100594.00
2018-07-17T10:16:51.297Z,100596.00
2018-07-17T10:19:21.659Z,100596.00
2018-07-17T10:21:52.629Z,100592.00
2018-07-17T10:24:23.880Z,100599.00
2018-07-17T10:26:54.449Z,100591.00
2018-07-17T10:29:26.129Z,100601.00
2018-07-17T10:31:56.692Z,100605.00
2018-07-17T10:34:28.486Z,100613.00
2018-07-17T10:36:59.083Z,100602.00
2018-07-17T10:39:29.863Z,100624.00
2018-07-17T10:42:00.894Z,100610.00
2018-07-17T10:44:32.021Z,100613.00
2018-07-17T10:47:02.877Z,100613.00
2018-07-17T10:49:33.829Z,100613.00
2018-07-17T10:52:04.969Z,100609.00
2018-07-17T10:54:36.423Z,100616.00
2018-07-17T10:57:06.733Z,100602.00
2018-07-17T11:04:05.766Z,100610.00
2018-07-17T11:06:35.998Z,100611.00
2018-07-17T11:09:07.082Z,100616.00
2018-07-17T11:11:37.453Z,100604.00
2018-07-17T11:14:08.193Z,100607.00
2018-07-17T11:16:38.587Z,100602.00
2018-07-17T11:19:08.522Z,100604.00
2018-07-17T11:21:38.854Z,100610.00
2018-07-17T11:24:08.976Z,100601.00
2018-07-17T11:26:39.284Z,100591.00
2018-07-17T11:29:09.439Z,100597.00
2018-07-17T11:31:39.952Z,100589.00
2018-07-17T11:34:10.360Z,100585.00
2018-07-17T11:36:41.153Z,100586.00
2018-07-17T11:39:12.381Z,100580.00
2018-07-17T11:41:42.846Z,100583.00
2018-07-17T11:44:13.493Z,100577.00
2018-07-17T11:46:44.062Z,100583.00
2018-07-17T11:49:14.324Z,100578.00
2018-07-17T11:51:44.556Z,100577.00
2018-07-17T11:54:15.124Z,100579.00
2018-07-17T11:56:45.561Z,100569.00
2018-07-17T11:59:15.664Z,100568.00
2018-07-17T12:01:45.940Z,100562.00
2018-07-17T12:04:16.335Z,100562.00
2018-07-17T12:06:46.940Z,100576.00
2018-07-17T12:09:17.330Z,100572.00
2018-07-17T12:48:01.964Z,100558.00
2018-07-17T12:50:31.986Z,100558.00
2018-07-17T12:53:02.096Z,100554.00
2018-07-17T12:55:32.590Z,100548.00
2018-07-17T12:58:03.339Z,100554.00
2018-07-17T13:00:33.471Z,100553.00
2018-07-17T13:03:03.982Z,100555.00
2018-07-17T13:05:34.337Z,100547.00
2018-07-17T13:08:05.027Z,100548.00
2018-07-17T13:10:35.421Z,100548.00
2018-07-17T13:13:05.858Z,100554.00
2018-07-17T13:15:36.298Z,100558.00
2018-07-17T13:18:06.971Z,100552.00
2018-07-17T13:20:37.453Z,100544.00
2018-07-17T13:23:08.363Z,100548.00
2018-07-17T13:25:39.012Z,100559.00
2018-07-17T13:28:09.689Z,100548.00
2018-07-17T13:30:40.530Z,100536.00
2018-07-17T13:33:11.735Z,100536.00
2018-07-17T13:35:44.240Z,100538.00
2018-07-17T13:38:14.371Z,100543.00
2018-07-17T13:40:44.392Z,100541.00
2018-07-17T13:43:14.575Z,100534.00
2018-07-17T13:45:44.818Z,100536.00
2018-07-17T13:48:15.127Z,100541.00
2018-07-17T13:50:45.466Z,100547.00
2018-07-17T13:53:16.363Z,100538.00
2018-07-17T13:55:46.993Z,100534.00
2018-07-17T13:58:17.968Z,100524.00
2018-07-17T14:00:48.444Z,100521.00
2018-07-17T14:03:19.501Z,100526.00
2018-07-17T14:05:49.799Z,100520.00
2018-07-17T14:08:19.901Z,100524.00
2018-07-17T14:10:50.006Z,100520.00
2018-07-17T14:13:20.393Z,100523.00
2018-07-17T14:15:50.977Z,100518.00
2018-07-17T14:18:21.263Z,100514.00
2018-07-17T14:20:51.522Z,100523.00
2018-07-17T14:23:21.804Z,100530.00
2018-07-17T14:25:52.107Z,100529.00
2018-07-17T14:28:22.472Z,100533.00
2018-07-17T14:30:53.281Z,100529.00
2018-07-17T14:33:23.840Z,100525.00
2018-07-17T14:35:54.150Z,100528.00
2018-07-17T14:38:24.830Z,100530.00
2018-07-17T14:40:55.374Z,100531.00
2018-07-17T14:43:26.027Z,100532.00
2018-07-17T14:45:56.396Z,100534.00
2018-07-17T14:48:26.705Z,100529.00
2018-07-17T14:50:57.455Z,100526.00
2018-07-17T14:53:28.263Z,100522.00
2018-07-17T14:55:59.272Z,100524.00
2018-07-17T14:58:30.126Z,100521.00
2018-07-17T15:01:00.533Z,100526.00
2018-07-17T15:03:33.476Z,100531.00
2018-07-17T15:06:04.035Z,100522.00
2018-07-17T15:08:34.730Z,100521.00
2018-07-17T15:11:05.316Z,100520.00
2018-07-17T15:13:35.527Z,100522.00
2018-07-17T15:16:06.095Z,100521.00
2018-07-17T15:18:36.642Z,100521.00
2018-07-17T15:21:07.263Z,100526.00
2018-07-17T15:23:37.469Z,100525.00
2018-07-17T15:26:08.189Z,100523.00
2018-07-17T15:28:45.138Z,100517.00
2018-07-17T15:31:15.770Z,100505.00
2018-07-17T15:33:46.428Z,100521.00
2018-07-17T15:36:16.790Z,100528.00
2018-07-17T15:38:47.453Z,100524.00
2018-07-17T15:41:18.152Z,100524.00
2018-07-17T15:43:48.636Z,100521.00
2018-07-17T15:46:19.000Z,100529.00
2018-07-17T15:48:49.658Z,100535.00
2018-07-17T15:51:19.869Z,100531.00
2018-07-17T15:53:50.141Z,100526.00
2018-07-17T15:56:20.326Z,100540.00
2018-07-17T15:58:50.555Z,100542.00
2018-07-17T16:01:20.840Z,100538.00
2018-07-17T16:03:51.458Z,100547.00
2018-07-17T16:06:21.783Z,100544.00
2018-07-17T16:08:52.135Z,100543.00
2018-07-17T16:11:23.319Z,100542.00
2018-07-17T16:13:54.255Z,100546.00
2018-07-17T16:16:25.023Z,100536.00
2018-07-17T16:18:55.171Z,100534.00
2018-07-17T16:21:27.407Z,100531.00
2018-07-17T16:23:57.797Z,100537.00
2018-07-17T16:26:29.163Z,100536.00
2018-07-17T16:29:02.485Z,100546.00
2018-07-17T16:31:33.350Z,100541.00
2018-07-17T16:34:05.124Z,100548.00
2018-07-17T16:36:35.484Z,100543.00
2018-07-17T16:39:08.172Z,100541.00
2018-07-17T16:41:38.537Z,100541.00
2018-07-17T16:44:09.150Z,100539.00
2018-07-17T16:46:39.958Z,100536.00
2018-07-17T16:49:10.120Z,100531.00
2018-07-17T16:51:40.858Z,100546.00
2018-07-17T16:54:11.189Z,100543.00
2018-07-17T16:56:41.673Z,100556.00
2018-07-17T16:59:14.092Z,100552.00
2018-07-17T17:01:44.273Z,100541.00
2018-07-17T17:04:15.006Z,100561.00
2018-07-17T17:06:48.110Z,100557.00
2018-07-17T17:09:18.453Z,100553.00
2018-07-17T17:11:50.861Z,100556.00
2018-07-17T17:14:21.199Z,100554.00
2018-07-17T17:16:52.544Z,100560.00
2018-07-17T17:19:23.468Z,100559.00
2018-07-17T17:21:54.313Z,100557.00
2018-07-17T17:24:24.672Z,100559.00
2018-07-17T17:26:54.684Z,100569.00
2018-07-17T17:29:24.993Z,100559.00
2018-07-17T17:31:56.495Z,100564.00
2018-07-17T17:34:29.667Z,100569.00
2018-07-17T17:36:59.620Z,100570.00
2018-07-17T17:39:32.861Z,100570.00
2018-07-17T17:42:03.148Z,100568.00
2018-07-17T17:44:33.178Z,100562.00
2018-07-17T17:47:03.614Z,100566.00
2018-07-17T17:49:34.183Z,100563.00
2018-07-17T17:52:04.444Z,100564.00
2018-07-17T17:54:38.479Z,100565.00
2018-07-17T17:57:09.019Z,100568.00
2018-07-17T17:59:39.085Z,100576.00
2018-07-17T18:02:09.934Z,100577.00
2018-07-17T18:04:40.312Z,100591.00
2018-07-17T18:07:10.550Z,100588.00
2018-07-17T18:09:40.776Z,100585.00
2018-07-17T18:12:11.374Z,100591.00
2018-07-17T18:14:42.134Z,100596.00
2018-07-17T18:17:12.432Z,100600.00
2018-07-17T18:19:43.304Z,100607.00
2018-07-17T18:22:13.655Z,100609.00
2018-07-17T18:24:44.250Z,100613.00
2018-07-17T18:27:14.649Z,100612.00
2018-07-17T18:29:45.387Z,100623.00
2018-07-17T18:32:15.822Z,100626.00
2018-07-17T18:34:47.114Z,100637.00
2018-07-17T18:37:18.141Z,100635.00
2018-07-17T18:42:11.121Z,100644.00
2018-07-17T18:44:41.523Z,100646.00
2018-07-17T18:47:12.550Z,100647.00
2018-07-17T18:49:42.843Z,100652.00
2018-07-17T18:52:13.060Z,100649.00
2018-07-17T18:54:43.430Z,100656.00
2018-07-17T18:57:15.743Z,100660.00
2018-07-17T18:59:46.818Z,100666.00
2018-07-17T19:02:18.395Z,100670.00
2018-07-17T19:04:51.513Z,100675.00
2018-07-17T19:07:24.145Z,100687.00
2018-07-17T19:09:57.722Z,100694.00
2018-07-17T19:12:28.803Z,100693.00
2018-07-17T19:14:59.424Z,100702.00
2018-07-17T19:17:30.648Z,100709.00
2018-07-17T19:20:03.058Z,100695.00
2018-07-17T19:22:34.329Z,100708.00
2018-07-17T19:25:13.257Z,100713.00
2018-07-17T19:27:46.181Z,100722.00
2018-07-17T19:30:17.662Z,100725.00
2018-07-17T19:32:49.751Z,100736.00
2018-07-17T19:35:23.580Z,100742.00
2018-07-17T19:37:55.277Z,100742.00
2018-07-17T19:40:30.805Z,100753.00
2018-07-17T19:43:01.502Z,100759.00
2018-07-17T19:45:32.953Z,100755.00
2018-07-17T19:48:04.268Z,100765.00
2018-07-17T19:50:40.015Z,100771.00
2018-07-17T19:53:16.697Z,100778.00
2018-07-17T19:55:47.867Z,100786.00
2018-07-17T19:58:17.829Z,100788.00
2018-07-17T20:00:47.852Z,100784.00
2018-07-17T20:03:17.958Z,100787.00
2018-07-17T20:05:48.483Z,100791.00
2018-07-17T20:08:18.801Z,100801.00
2018-07-17T20:10:49.597Z,100803.00
2018-07-17T20:13:19.912Z,100808.00
2018-07-17T20:15:50.248Z,100810.00
2018-07-17T20:18:20.571Z,100816.00
2018-07-17T20:20:50.859Z,100817.00
2018-07-17T20:23:21.488Z,100821.00
2018-07-17T20:25:51.834Z,100823.00
2018-07-17T20:28:22.234Z,100829.00
2018-07-17T20:30:52.555Z,100828.00
2018-07-17T20:33:22.722Z,100839.00
2018-07-17T20:35:53.024Z,100841.00
2018-07-17T20:38:23.612Z,100843.00
2018-07-17T20:40:54.358Z,100844.00
2018-07-17T20:44:15.880Z,100848.00
2018-07-17T20:46:50.313Z,100848.00
2018-07-17T20:49:23.247Z,100855.00
2018-07-17T20:51:57.406Z,100854.00
2018-07-17T20:54:28.702Z,100855.00
2018-07-17T20:57:01.112Z,100858.00
2018-07-17T20:59:33.092Z,100859.00
2018-07-17T21:02:04.189Z,100859.00
2018-07-17T21:04:35.312Z,100866.00
2018-07-17T21:07:07.651Z,100864.00
2018-07-17T21:09:38.302Z,100865.00
2018-07-17T21:12:13.113Z,100870.00
2018-07-17T21:14:51.098Z,100877.00
2018-07-17T21:17:25.251Z,100877.00
2018-07-17T21:19:55.909Z,100883.00
2018-07-17T21:22:27.534Z,100887.00
2018-07-17T21:24:58.113Z,100894.00
2018-07-17T21:27:34.647Z,100896.00
2018-07-17T21:30:08.069Z,100900.00
2018-07-17T21:32:42.840Z,100902.00
2018-07-17T21:35:15.420Z,100901.00
2018-07-17T21:37:45.905Z,100903.00
2018-07-17T21:40:16.837Z,100902.00
2018-07-17T21:42:50.248Z,100907.00
2018-07-17T21:46:03.793Z,100910.00
2018-07-17T21:48:33.758Z,100911.00
2018-07-17T21:51:04.137Z,100920.00
2018-07-17T21:53:34.187Z,100925.00
2018-07-17T21:56:04.547Z,100925.00
2018-07-17T21:58:34.734Z,100930.00
2018-07-17T22:01:04.974Z,100930.00
2018-07-17T22:03:35.262Z,100932.00
2018-07-17T22:06:05.622Z,100934.00
2018-07-17T22:08:35.752Z,100929.00
2018-07-17T22:11:05.813Z,100935.00
2018-07-17T22:13:35.890Z,100935.00
2018-07-17T22:16:06.283Z,100943.00
2018-07-17T22:18:36.349Z,100943.00
2018-07-17T22:21:07.347Z,100938.00
2018-07-17T22:23:38.487Z,100934.00
2018-07-17T22:26:09.709Z,100941.00
2018-07-17T22:28:40.239Z,100945.00
2018-07-17T22:31:10.326Z,100940.00
2018-07-17T22:33:40.463Z,100948.00
2018-07-17T22:36:10.543Z,100951.00
2018-07-17T22:38:40.773Z,100953.00
2018-07-17T22:41:10.973Z,100954.00
2018-07-17T22:43:41.041Z,100954.00
2018-07-17T22:46:11.462Z,100960.00
2018-07-17T22:48:41.562Z,100959.00
2018-07-17T22:51:11.781Z,100960.00
2018-07-17T22:53:41.902Z,100963.00
2018-07-17T22:56:12.107Z,100956.00
2018-07-17T22:58:42.380Z,100961.00
2018-07-17T23:01:12.604Z,100965.00
2018-07-17T23:03:42.756Z,100961.00
2018-07-17T23:06:12.993Z,100964.00
2018-07-17T23:08:43.114Z,100961.00
2018-07-17T23:11:13.371Z,100971.00
2018-07-17T23:13:43.518Z,100973.00
2018-07-17T23:16:13.634Z,100980.00
2018-07-17T23:18:43.813Z,100984.00
2018-07-17T23:21:13.800Z,100981.00
2018-07-17T23:23:44.172Z,100982.00
2018-07-17T23:26:14.497Z,100981.00
2018-07-17T23:28:44.597Z,100980.00
2018-07-17T23:31:14.933Z,100977.00
2018-07-17T23:33:44.940Z,100974.00
2018-07-17T23:36:15.126Z,100972.00
2018-07-17T23:38:45.492Z,100977.00
2018-07-17T23:41:15.365Z,100977.00
2018-07-17T23:43:45.803Z,100977.00
2018-07-17T23:46:16.219Z,100980.00
2018-07-17T23:48:46.209Z,100983.00
2018-07-17T23:51:17.022Z,100983.00
2018-07-17T23:53:47.618Z,100984.00
2018-07-17T23:56:17.662Z,100984.00
2018-07-17T23:58:49.010Z,100986.00
